sensor_id;sensor_type;location;lat;lon;timestamp;temperature;humidity
10042;DHT22;5061;49.068;12.058;2022-10-16T00:02:47;14.60;99.90
10042;DHT22;5061;49.068;12.058;2022-10-16T00:06:08;14.60;99.90
10042;DHT22;5061;49.068;12.058;2022-10-16T00:09:29;14.50;99.90
10042;DHT22;5061;49.068;12.058;2022-10-16T00:12:50;14.50;99.90
10042;DHT22;5061;49.068;12.058;2022-10-16T00:16:12;14.50;99.90
10042;DHT22;5061;49.068;12.058;2022-10-16T00:19:33;14.50;99.90
10042;DHT22;5061;49.068;12.058;2022-10-16T00:22:53;14.60;99.90
10042;DHT22;5061;49.068;12.058;2022-10-16T00:26:16;14.50;99.90
10042;DHT22;5061;49.068;12.058;2022-10-16T00:29:37;14.50;99.90
10042;DHT22;5061;49.068;12.058;2022-10-16T00:32:58;14.50;99.90
10042;DHT22;5061;49.068;12.058;2022-10-16T00:36:21;14.50;99.90
10042;DHT22;5061;49.068;12.058;2022-10-16T00:39:42;14.50;99.90
10042;DHT22;5061;49.068;12.058;2022-10-16T00:43:02;14.50;99.90
10042;DHT22;5061;49.068;12.058;2022-10-16T00:46:27;14.50;99.90
10042;DHT22;5061;49.068;12.058;2022-10-16T00:49:51;14.50;99.90
10042;DHT22;5061;49.068;12.058;2022-10-16T00:53:12;14.50;99.90
10042;DHT22;5061;49.068;12.058;2022-10-16T00:56:33;14.50;99.90
10042;DHT22;5061;49.068;12.058;2022-10-16T00:59:54;14.50;99.90
10042;DHT22;5061;49.068;12.058;2022-10-16T01:03:31;14.40;99.90
10042;DHT22;5061;49.068;12.058;2022-10-16T01:07:02;14.40;99.90
10042;DHT22;5061;49.068;12.058;2022-10-16T01:10:27;14.40;99.90
10042;DHT22;5061;49.068;12.058;2022-10-16T01:13:55;14.40;99.90
10042;DHT22;5061;49.068;12.058;2022-10-16T01:17:43;14.40;99.90
10042;DHT22;5061;49.068;12.058;2022-10-16T01:21:07;14.40;99.90
10042;DHT22;5061;49.068;12.058;2022-10-16T01:24:33;14.40;99.90
10042;DHT22;5061;49.068;12.058;2022-10-16T01:27:59;14.40;99.90
10042;DHT22;5061;49.068;12.058;2022-10-16T01:31:26;14.40;99.90
10042;DHT22;5061;49.068;12.058;2022-10-16T01:34:53;14.40;99.90
10042;DHT22;5061;49.068;12.058;2022-10-16T01:38:37;14.40;99.90
10042;DHT22;5061;49.068;12.058;2022-10-16T01:42:06;14.40;99.90
10042;DHT22;5061;49.068;12.058;2022-10-16T01:45:29;14.40;99.90
10042;DHT22;5061;49.068;12.058;2022-10-16T01:48:52;14.40;99.90
10042;DHT22;5061;49.068;12.058;2022-10-16T01:52:17;14.30;99.90
10042;DHT22;5061;49.068;12.058;2022-10-16T01:55:41;14.30;99.90
10042;DHT22;5061;49.068;12.058;2022-10-16T01:59:14;14.30;99.90
10042;DHT22;5061;49.068;12.058;2022-10-16T02:02:39;14.30;99.90
10042;DHT22;5061;49.068;12.058;2022-10-16T02:06:01;14.30;99.90
10042;DHT22;5061;49.068;12.058;2022-10-16T02:09:22;14.30;99.90
10042;DHT22;5061;49.068;12.058;2022-10-16T02:12:48;14.30;99.90
10042;DHT22;5061;49.068;12.058;2022-10-16T02:16:12;14.30;99.90
10042;DHT22;5061;49.068;12.058;2022-10-16T02:19:33;14.40;99.90
10042;DHT22;5061;49.068;12.058;2022-10-16T02:22:54;14.30;99.90
10042;DHT22;5061;49.068;12.058;2022-10-16T02:26:23;14.30;99.90
10042;DHT22;5061;49.068;12.058;2022-10-16T02:29:51;14.30;99.90
10042;DHT22;5061;49.068;12.058;2022-10-16T02:33:13;14.30;99.90
10042;DHT22;5061;49.068;12.058;2022-10-16T02:36:35;14.30;99.90
10042;DHT22;5061;49.068;12.058;2022-10-16T02:39:58;14.30;99.90
10042;DHT22;5061;49.068;12.058;2022-10-16T02:43:18;14.30;99.90
10042;DHT22;5061;49.068;12.058;2022-10-16T02:46:39;14.30;99.90
10042;DHT22;5061;49.068;12.058;2022-10-16T02:50:00;14.30;99.90
10042;DHT22;5061;49.068;12.058;2022-10-16T02:53:20;14.30;99.90
10042;DHT22;5061;49.068;12.058;2022-10-16T02:56:41;14.30;99.90
10042;DHT22;5061;49.068;12.058;2022-10-16T03:00:03;14.30;99.90
10042;DHT22;5061;49.068;12.058;2022-10-16T03:03:24;14.30;99.90
10042;DHT22;5061;49.068;12.058;2022-10-16T03:06:45;14.30;99.90
10042;DHT22;5061;49.068;12.058;2022-10-16T03:10:06;14.30;99.90
10042;DHT22;5061;49.068;12.058;2022-10-16T03:13:27;14.30;99.90
10042;DHT22;5061;49.068;12.058;2022-10-16T03:16:47;14.30;99.90
10042;DHT22;5061;49.068;12.058;2022-10-16T03:20:08;14.30;99.90
10042;DHT22;5061;49.068;12.058;2022-10-16T03:23:29;14.30;99.90
10042;DHT22;5061;49.068;12.058;2022-10-16T03:26:49;14.30;99.90
10042;DHT22;5061;49.068;12.058;2022-10-16T03:30:10;14.30;99.90
10042;DHT22;5061;49.068;12.058;2022-10-16T03:33:31;14.30;99.90
10042;DHT22;5061;49.068;12.058;2022-10-16T03:36:52;14.30;99.90
10042;DHT22;5061;49.068;12.058;2022-10-16T03:40:13;14.30;99.90
10042;DHT22;5061;49.068;12.058;2022-10-16T03:43:33;14.30;99.90
10042;DHT22;5061;49.068;12.058;2022-10-16T03:46:54;14.30;99.90
10042;DHT22;5061;49.068;12.058;2022-10-16T03:50:14;14.30;99.90
10042;DHT22;5061;49.068;12.058;2022-10-16T03:53:35;14.30;99.90
10042;DHT22;5061;49.068;12.058;2022-10-16T03:56:56;14.30;99.90
10042;DHT22;5061;49.068;12.058;2022-10-16T04:00:16;14.20;99.90
10042;DHT22;5061;49.068;12.058;2022-10-16T04:03:37;14.20;99.90
10042;DHT22;5061;49.068;12.058;2022-10-16T04:06:58;14.20;99.90
10042;DHT22;5061;49.068;12.058;2022-10-16T04:10:18;14.20;99.90
10042;DHT22;5061;49.068;12.058;2022-10-16T04:13:39;14.20;99.90
10042;DHT22;5061;49.068;12.058;2022-10-16T04:17:00;14.10;99.90
10042;DHT22;5061;49.068;12.058;2022-10-16T04:20:20;14.10;99.90
10042;DHT22;5061;49.068;12.058;2022-10-16T04:23:42;14.10;99.90
10042;DHT22;5061;49.068;12.058;2022-10-16T04:27:02;14.10;99.90
10042;DHT22;5061;49.068;12.058;2022-10-16T04:30:23;14.10;99.90
10042;DHT22;5061;49.068;12.058;2022-10-16T04:33:44;14.10;99.90
10042;DHT22;5061;49.068;12.058;2022-10-16T04:37:05;14.10;99.90
10042;DHT22;5061;49.068;12.058;2022-10-16T04:40:26;14.10;99.90
10042;DHT22;5061;49.068;12.058;2022-10-16T04:43:46;14.10;99.90
10042;DHT22;5061;49.068;12.058;2022-10-16T04:47:07;14.10;99.90
10042;DHT22;5061;49.068;12.058;2022-10-16T04:50:28;14.00;99.90
10042;DHT22;5061;49.068;12.058;2022-10-16T04:53:48;14.00;99.90
10042;DHT22;5061;49.068;12.058;2022-10-16T04:57:09;14.00;99.90
10042;DHT22;5061;49.068;12.058;2022-10-16T05:00:30;14.00;99.90
10042;DHT22;5061;49.068;12.058;2022-10-16T05:03:51;14.00;99.90
10042;DHT22;5061;49.068;12.058;2022-10-16T05:07:12;14.00;99.90
10042;DHT22;5061;49.068;12.058;2022-10-16T05:10:33;14.00;99.90
10042;DHT22;5061;49.068;12.058;2022-10-16T05:13:53;14.00;99.90
10042;DHT22;5061;49.068;12.058;2022-10-16T05:17:14;14.00;99.90
10042;DHT22;5061;49.068;12.058;2022-10-16T05:20:34;14.00;99.90
10042;DHT22;5061;49.068;12.058;2022-10-16T05:23:55;14.00;99.90
10042;DHT22;5061;49.068;12.058;2022-10-16T05:27:16;14.00;99.90
10042;DHT22;5061;49.068;12.058;2022-10-16T05:30:39;14.00;99.90
10042;DHT22;5061;49.068;12.058;2022-10-16T05:34:00;14.00;99.90
10042;DHT22;5061;49.068;12.058;2022-10-16T05:37:21;14.00;99.90
10042;DHT22;5061;49.068;12.058;2022-10-16T05:40:42;14.00;99.90
10042;DHT22;5061;49.068;12.058;2022-10-16T05:44:05;14.00;99.90
10042;DHT22;5061;49.068;12.058;2022-10-16T05:47:26;14.00;99.90
10042;DHT22;5061;49.068;12.058;2022-10-16T05:50:47;14.00;99.90
10042;DHT22;5061;49.068;12.058;2022-10-16T05:54:09;14.00;99.90
10042;DHT22;5061;49.068;12.058;2022-10-16T05:57:29;14.00;99.90
10042;DHT22;5061;49.068;12.058;2022-10-16T06:00:57;14.00;99.90
10042;DHT22;5061;49.068;12.058;2022-10-16T06:04:18;14.00;99.90
10042;DHT22;5061;49.068;12.058;2022-10-16T06:07:39;14.00;99.90
10042;DHT22;5061;49.068;12.058;2022-10-16T06:11:01;14.00;99.90
10042;DHT22;5061;49.068;12.058;2022-10-16T06:14:22;14.00;99.90
10042;DHT22;5061;49.068;12.058;2022-10-16T06:17:43;14.00;99.90
10042;DHT22;5061;49.068;12.058;2022-10-16T06:21:20;14.00;99.90
10042;DHT22;5061;49.068;12.058;2022-10-16T06:24:41;14.00;99.90
10042;DHT22;5061;49.068;12.058;2022-10-16T06:28:01;13.90;99.90
10042;DHT22;5061;49.068;12.058;2022-10-16T06:31:22;14.00;99.90
10042;DHT22;5061;49.068;12.058;2022-10-16T06:34:47;14.00;99.90
10042;DHT22;5061;49.068;12.058;2022-10-16T06:38:08;14.00;99.90
10042;DHT22;5061;49.068;12.058;2022-10-16T06:41:28;14.00;99.90
10042;DHT22;5061;49.068;12.058;2022-10-16T06:44:49;14.00;99.90
10042;DHT22;5061;49.068;12.058;2022-10-16T06:48:10;14.00;99.90
10042;DHT22;5061;49.068;12.058;2022-10-16T06:51:30;14.00;99.90
10042;DHT22;5061;49.068;12.058;2022-10-16T06:54:52;14.00;99.90
10042;DHT22;5061;49.068;12.058;2022-10-16T06:58:13;14.00;99.90
10042;DHT22;5061;49.068;12.058;2022-10-16T07:01:33;14.00;99.90
10042;DHT22;5061;49.068;12.058;2022-10-16T07:04:54;14.00;99.90
10042;DHT22;5061;49.068;12.058;2022-10-16T07:08:14;14.00;99.90
10042;DHT22;5061;49.068;12.058;2022-10-16T07:11:37;14.00;99.90
10042;DHT22;5061;49.068;12.058;2022-10-16T07:14:58;14.00;99.90
10042;DHT22;5061;49.068;12.058;2022-10-16T07:18:19;14.10;99.90
10042;DHT22;5061;49.068;12.058;2022-10-16T07:21:40;14.20;99.90
10042;DHT22;5061;49.068;12.058;2022-10-16T07:25:01;14.20;99.90
10042;DHT22;5061;49.068;12.058;2022-10-16T07:28:22;14.20;99.90
10042;DHT22;5061;49.068;12.058;2022-10-16T07:31:43;14.30;99.90
10042;DHT22;5061;49.068;12.058;2022-10-16T07:35:04;14.30;99.90
10042;DHT22;5061;49.068;12.058;2022-10-16T07:38:25;14.40;99.90
10042;DHT22;5061;49.068;12.058;2022-10-16T07:41:46;14.40;99.90
10042;DHT22;5061;49.068;12.058;2022-10-16T07:45:06;14.50;99.90
10042;DHT22;5061;49.068;12.058;2022-10-16T07:48:28;14.50;99.90
10042;DHT22;5061;49.068;12.058;2022-10-16T07:51:49;14.60;99.90
10042;DHT22;5061;49.068;12.058;2022-10-16T07:55:10;14.60;99.90
10042;DHT22;5061;49.068;12.058;2022-10-16T07:58:31;14.70;99.90
10042;DHT22;5061;49.068;12.058;2022-10-16T08:01:52;14.80;99.90
10042;DHT22;5061;49.068;12.058;2022-10-16T08:05:13;14.90;99.90
10042;DHT22;5061;49.068;12.058;2022-10-16T08:08:34;15.00;99.90
10042;DHT22;5061;49.068;12.058;2022-10-16T08:11:55;15.00;99.90
10042;DHT22;5061;49.068;12.058;2022-10-16T08:15:16;15.10;99.90
10042;DHT22;5061;49.068;12.058;2022-10-16T08:18:38;15.20;99.90
10042;DHT22;5061;49.068;12.058;2022-10-16T08:21:59;15.20;99.90
10042;DHT22;5061;49.068;12.058;2022-10-16T08:25:21;15.20;99.90
10042;DHT22;5061;49.068;12.058;2022-10-16T08:28:44;15.40;99.90
10042;DHT22;5061;49.068;12.058;2022-10-16T08:32:05;15.40;99.90
10042;DHT22;5061;49.068;12.058;2022-10-16T08:35:26;15.50;99.90
10042;DHT22;5061;49.068;12.058;2022-10-16T08:38:48;15.50;99.90
10042;DHT22;5061;49.068;12.058;2022-10-16T08:42:32;15.60;99.90
10042;DHT22;5061;49.068;12.058;2022-10-16T08:46:12;15.50;99.90
10042;DHT22;5061;49.068;12.058;2022-10-16T08:49:35;15.60;99.90
10042;DHT22;5061;49.068;12.058;2022-10-16T08:52:57;15.50;99.90
10042;DHT22;5061;49.068;12.058;2022-10-16T08:56:18;15.50;99.90
10042;DHT22;5061;49.068;12.058;2022-10-16T08:59:39;15.40;99.90
10042;DHT22;5061;49.068;12.058;2022-10-16T09:10:18;15.40;99.90
10042;DHT22;5061;49.068;12.058;2022-10-16T09:13:47;15.40;99.90
10042;DHT22;5061;49.068;12.058;2022-10-16T09:24:38;15.40;99.90
10042;DHT22;5061;49.068;12.058;2022-10-16T09:28:02;15.40;99.90
10042;DHT22;5061;49.068;12.058;2022-10-16T09:31:23;15.50;99.90
10042;DHT22;5061;49.068;12.058;2022-10-16T09:34:47;15.50;99.90
10042;DHT22;5061;49.068;12.058;2022-10-16T09:38:09;15.60;99.90
10042;DHT22;5061;49.068;12.058;2022-10-16T09:41:45;15.60;99.90
10042;DHT22;5061;49.068;12.058;2022-10-16T09:45:19;15.60;99.90
10042;DHT22;5061;49.068;12.058;2022-10-16T09:48:44;15.60;99.90
10042;DHT22;5061;49.068;12.058;2022-10-16T09:52:12;15.70;99.90
10042;DHT22;5061;49.068;12.058;2022-10-16T09:55:33;15.80;99.90
10042;DHT22;5061;49.068;12.058;2022-10-16T09:58:57;15.90;99.90
10042;DHT22;5061;49.068;12.058;2022-10-16T10:02:35;15.90;99.90
10042;DHT22;5061;49.068;12.058;2022-10-16T10:05:56;16.00;99.90
10042;DHT22;5061;49.068;12.058;2022-10-16T10:09:22;16.10;99.90
10042;DHT22;5061;49.068;12.058;2022-10-16T10:12:45;16.20;99.90
10042;DHT22;5061;49.068;12.058;2022-10-16T10:16:06;16.20;99.90
10042;DHT22;5061;49.068;12.058;2022-10-16T10:19:27;16.20;99.90
10042;DHT22;5061;49.068;12.058;2022-10-16T10:22:48;16.30;99.90
10042;DHT22;5061;49.068;12.058;2022-10-16T10:26:18;16.30;99.90
10042;DHT22;5061;49.068;12.058;2022-10-16T10:29:58;16.50;99.90
10042;DHT22;5061;49.068;12.058;2022-10-16T10:33:48;16.50;99.90
10042;DHT22;5061;49.068;12.058;2022-10-16T10:51:40;16.90;99.90
10042;DHT22;5061;49.068;12.058;2022-10-16T10:59:02;17.30;99.90
10042;DHT22;5061;49.068;12.058;2022-10-16T11:02:43;17.40;99.90
10042;DHT22;5061;49.068;12.058;2022-10-16T11:06:16;17.60;99.90
10042;DHT22;5061;49.068;12.058;2022-10-16T11:09:45;17.60;99.90
10042;DHT22;5061;49.068;12.058;2022-10-16T11:17:01;17.90;99.90
10042;DHT22;5061;49.068;12.058;2022-10-16T11:20:30;18.00;99.90
10042;DHT22;5061;49.068;12.058;2022-10-16T11:23:59;18.00;99.90
10042;DHT22;5061;49.068;12.058;2022-10-16T11:27:40;18.20;99.90
10042;DHT22;5061;49.068;12.058;2022-10-16T11:31:17;18.20;99.90
10042;DHT22;5061;49.068;12.058;2022-10-16T11:34:47;18.30;99.90
10042;DHT22;5061;49.068;12.058;2022-10-16T11:45:30;18.50;99.90
10042;DHT22;5061;49.068;12.058;2022-10-16T11:49:14;18.60;99.90
10042;DHT22;5061;49.068;12.058;2022-10-16T11:56:21;18.70;99.90
10042;DHT22;5061;49.068;12.058;2022-10-16T11:59:52;18.70;99.90
10042;DHT22;5061;49.068;12.058;2022-10-16T12:06:59;18.70;99.90
10042;DHT22;5061;49.068;12.058;2022-10-16T12:10:26;18.70;99.90
10042;DHT22;5061;49.068;12.058;2022-10-16T12:13:48;18.80;99.90
10042;DHT22;5061;49.068;12.058;2022-10-16T12:17:25;18.80;99.90
10042;DHT22;5061;49.068;12.058;2022-10-16T12:20:57;18.90;99.90
10042;DHT22;5061;49.068;12.058;2022-10-16T12:24:36;18.90;99.90
10042;DHT22;5061;49.068;12.058;2022-10-16T12:31:45;19.10;99.90
10042;DHT22;5061;49.068;12.058;2022-10-16T12:35:19;19.20;99.90
10042;DHT22;5061;49.068;12.058;2022-10-16T12:38:50;19.30;99.90
10042;DHT22;5061;49.068;12.058;2022-10-16T12:45:46;19.60;99.90
10042;DHT22;5061;49.068;12.058;2022-10-16T12:52:35;19.80;99.90
10042;DHT22;5061;49.068;12.058;2022-10-16T12:56:20;19.80;99.90
10042;DHT22;5061;49.068;12.058;2022-10-16T13:07:22;19.80;99.90
10042;DHT22;5061;49.068;12.058;2022-10-16T13:11:26;19.80;99.90
10042;DHT22;5061;49.068;12.058;2022-10-16T13:15:11;19.70;99.90
10042;DHT22;5061;49.068;12.058;2022-10-16T13:29:30;20.20;99.90
10042;DHT22;5061;49.068;12.058;2022-10-16T13:33:15;20.40;99.90
10042;DHT22;5061;49.068;12.058;2022-10-16T13:36:47;20.50;99.90
10042;DHT22;5061;49.068;12.058;2022-10-16T13:40:22;20.60;99.90
10042;DHT22;5061;49.068;12.058;2022-10-16T13:43:50;20.70;99.90
10042;DHT22;5061;49.068;12.058;2022-10-16T13:47:30;20.70;99.90
10042;DHT22;5061;49.068;12.058;2022-10-16T13:51:14;20.70;99.90
10042;DHT22;5061;49.068;12.058;2022-10-16T13:54:35;20.80;99.90
10042;DHT22;5061;49.068;12.058;2022-10-16T13:58:06;20.80;99.90
10042;DHT22;5061;49.068;12.058;2022-10-16T14:01:47;20.90;99.90
10042;DHT22;5061;49.068;12.058;2022-10-16T14:05:09;20.90;99.90
10042;DHT22;5061;49.068;12.058;2022-10-16T14:08:31;21.00;99.90
10042;DHT22;5061;49.068;12.058;2022-10-16T14:11:58;21.00;99.90
10042;DHT22;5061;49.068;12.058;2022-10-16T14:15:19;21.00;99.90
10042;DHT22;5061;49.068;12.058;2022-10-16T14:18:40;21.10;99.90
10042;DHT22;5061;49.068;12.058;2022-10-16T14:22:02;21.10;99.90
10042;DHT22;5061;49.068;12.058;2022-10-16T14:25:29;21.10;99.90
10042;DHT22;5061;49.068;12.058;2022-10-16T14:29:10;21.10;99.90
10042;DHT22;5061;49.068;12.058;2022-10-16T14:32:31;21.10;99.90
10042;DHT22;5061;49.068;12.058;2022-10-16T14:39:30;21.00;99.90
10042;DHT22;5061;49.068;12.058;2022-10-16T14:42:51;20.90;99.90
10042;DHT22;5061;49.068;12.058;2022-10-16T14:46:18;20.90;99.90
10042;DHT22;5061;49.068;12.058;2022-10-16T14:49:41;20.90;99.90
10042;DHT22;5061;49.068;12.058;2022-10-16T14:53:16;20.90;99.90
10042;DHT22;5061;49.068;12.058;2022-10-16T14:56:57;20.90;99.90
10042;DHT22;5061;49.068;12.058;2022-10-16T15:00:23;20.90;99.90
10042;DHT22;5061;49.068;12.058;2022-10-16T15:03:44;20.80;99.90
10042;DHT22;5061;49.068;12.058;2022-10-16T15:07:07;20.70;99.90
10042;DHT22;5061;49.068;12.058;2022-10-16T15:10:28;20.60;99.90
10042;DHT22;5061;49.068;12.058;2022-10-16T15:13:50;20.50;99.90
10042;DHT22;5061;49.068;12.058;2022-10-16T15:17:11;20.50;99.90
10042;DHT22;5061;49.068;12.058;2022-10-16T15:20:34;20.40;99.90
10042;DHT22;5061;49.068;12.058;2022-10-16T15:23:56;20.30;99.90
10042;DHT22;5061;49.068;12.058;2022-10-16T15:27:19;20.20;99.90
10042;DHT22;5061;49.068;12.058;2022-10-16T15:30:40;20.10;99.90
10042;DHT22;5061;49.068;12.058;2022-10-16T15:34:00;20.00;99.90
10042;DHT22;5061;49.068;12.058;2022-10-16T15:37:27;19.90;99.90
10042;DHT22;5061;49.068;12.058;2022-10-16T15:40:49;19.80;99.90
10042;DHT22;5061;49.068;12.058;2022-10-16T15:44:09;19.60;99.90
10042;DHT22;5061;49.068;12.058;2022-10-16T15:47:30;19.50;99.90
10042;DHT22;5061;49.068;12.058;2022-10-16T15:50:51;19.30;99.90
10042;DHT22;5061;49.068;12.058;2022-10-16T15:54:11;19.20;99.90
10042;DHT22;5061;49.068;12.058;2022-10-16T15:57:32;19.10;99.90
10042;DHT22;5061;49.068;12.058;2022-10-16T16:00:57;19.00;99.90
10042;DHT22;5061;49.068;12.058;2022-10-16T16:04:17;18.90;99.90
10042;DHT22;5061;49.068;12.058;2022-10-16T16:07:39;18.70;99.90
10042;DHT22;5061;49.068;12.058;2022-10-16T16:11:06;18.60;99.90
10042;DHT22;5061;49.068;12.058;2022-10-16T16:14:27;18.50;99.90
10042;DHT22;5061;49.068;12.058;2022-10-16T16:17:48;18.40;99.90
10042;DHT22;5061;49.068;12.058;2022-10-16T16:21:12;18.30;99.90
10042;DHT22;5061;49.068;12.058;2022-10-16T16:24:33;18.20;99.90
10042;DHT22;5061;49.068;12.058;2022-10-16T16:27:53;18.20;99.90
10042;DHT22;5061;49.068;12.058;2022-10-16T16:31:14;18.10;99.90
10042;DHT22;5061;49.068;12.058;2022-10-16T16:38:03;17.90;99.90
10042;DHT22;5061;49.068;12.058;2022-10-16T16:41:25;17.80;99.90
10042;DHT22;5061;49.068;12.058;2022-10-16T16:44:47;17.70;99.90
10042;DHT22;5061;49.068;12.058;2022-10-16T16:48:08;17.60;99.90
10042;DHT22;5061;49.068;12.058;2022-10-16T16:51:29;17.60;99.90
10042;DHT22;5061;49.068;12.058;2022-10-16T16:54:50;17.50;99.90
10042;DHT22;5061;49.068;12.058;2022-10-16T16:58:13;17.50;99.90
10042;DHT22;5061;49.068;12.058;2022-10-16T17:01:33;17.40;99.90
10042;DHT22;5061;49.068;12.058;2022-10-16T17:04:54;17.40;99.90
10042;DHT22;5061;49.068;12.058;2022-10-16T17:08:17;17.30;99.90
10042;DHT22;5061;49.068;12.058;2022-10-16T17:11:37;17.30;99.90
10042;DHT22;5061;49.068;12.058;2022-10-16T17:14:58;17.20;99.90
10042;DHT22;5061;49.068;12.058;2022-10-16T17:18:20;17.20;99.90
10042;DHT22;5061;49.068;12.058;2022-10-16T17:21:42;17.20;99.90
10042;DHT22;5061;49.068;12.058;2022-10-16T17:25:03;17.10;99.90
10042;DHT22;5061;49.068;12.058;2022-10-16T17:28:24;17.10;99.90
10042;DHT22;5061;49.068;12.058;2022-10-16T17:31:45;17.10;99.90
10042;DHT22;5061;49.068;12.058;2022-10-16T17:35:06;17.00;99.90
10042;DHT22;5061;49.068;12.058;2022-10-16T17:38:28;17.00;99.90
10042;DHT22;5061;49.068;12.058;2022-10-16T17:41:48;16.90;99.90
10042;DHT22;5061;49.068;12.058;2022-10-16T17:45:09;16.90;99.90
10042;DHT22;5061;49.068;12.058;2022-10-16T17:48:30;16.90;99.90
10042;DHT22;5061;49.068;12.058;2022-10-16T17:51:51;16.90;99.90
10042;DHT22;5061;49.068;12.058;2022-10-16T17:55:12;16.90;99.90
10042;DHT22;5061;49.068;12.058;2022-10-16T17:58:33;16.90;99.90
10042;DHT22;5061;49.068;12.058;2022-10-16T18:01:54;16.90;99.90
10042;DHT22;5061;49.068;12.058;2022-10-16T18:05:15;16.90;99.90
10042;DHT22;5061;49.068;12.058;2022-10-16T18:08:35;16.80;99.90
10042;DHT22;5061;49.068;12.058;2022-10-16T18:11:56;16.80;99.90
10042;DHT22;5061;49.068;12.058;2022-10-16T18:15:19;16.80;99.90
10042;DHT22;5061;49.068;12.058;2022-10-16T18:18:42;16.80;99.90
10042;DHT22;5061;49.068;12.058;2022-10-16T18:22:06;16.80;99.90
10042;DHT22;5061;49.068;12.058;2022-10-16T18:25:27;16.80;99.90
10042;DHT22;5061;49.068;12.058;2022-10-16T18:28:51;16.80;99.90
10042;DHT22;5061;49.068;12.058;2022-10-16T18:32:11;16.70;99.90
10042;DHT22;5061;49.068;12.058;2022-10-16T18:35:35;16.70;99.90
10042;DHT22;5061;49.068;12.058;2022-10-16T18:39:00;16.70;99.90
10042;DHT22;5061;49.068;12.058;2022-10-16T18:42:22;16.70;99.90
10042;DHT22;5061;49.068;12.058;2022-10-16T18:45:42;16.70;99.90
10042;DHT22;5061;49.068;12.058;2022-10-16T18:49:03;16.70;99.90
10042;DHT22;5061;49.068;12.058;2022-10-16T18:52:24;16.70;99.90
10042;DHT22;5061;49.068;12.058;2022-10-16T18:55:55;16.60;99.90
10042;DHT22;5061;49.068;12.058;2022-10-16T18:59:15;16.60;99.90
10042;DHT22;5061;49.068;12.058;2022-10-16T19:02:36;16.60;99.90
10042;DHT22;5061;49.068;12.058;2022-10-16T19:06:05;16.60;99.90
10042;DHT22;5061;49.068;12.058;2022-10-16T19:09:27;16.60;99.90
10042;DHT22;5061;49.068;12.058;2022-10-16T19:12:48;16.60;99.90
10042;DHT22;5061;49.068;12.058;2022-10-16T19:16:11;16.60;99.90
10042;DHT22;5061;49.068;12.058;2022-10-16T19:19:33;16.60;99.90
10042;DHT22;5061;49.068;12.058;2022-10-16T19:22:53;16.60;99.90
10042;DHT22;5061;49.068;12.058;2022-10-16T19:26:17;16.60;99.90
10042;DHT22;5061;49.068;12.058;2022-10-16T19:29:38;16.60;99.90
10042;DHT22;5061;49.068;12.058;2022-10-16T19:32:59;16.50;99.90
10042;DHT22;5061;49.068;12.058;2022-10-16T19:36:25;16.60;99.90
10042;DHT22;5061;49.068;12.058;2022-10-16T19:39:48;16.60;99.90
10042;DHT22;5061;49.068;12.058;2022-10-16T19:43:08;16.50;99.90
10042;DHT22;5061;49.068;12.058;2022-10-16T19:46:30;16.60;99.90
10042;DHT22;5061;49.068;12.058;2022-10-16T19:49:51;16.50;99.90
10042;DHT22;5061;49.068;12.058;2022-10-16T19:53:12;16.50;99.90
10042;DHT22;5061;49.068;12.058;2022-10-16T19:56:34;16.50;99.90
10042;DHT22;5061;49.068;12.058;2022-10-16T19:59:55;16.50;99.90
10042;DHT22;5061;49.068;12.058;2022-10-16T20:03:16;16.50;99.90
10042;DHT22;5061;49.068;12.058;2022-10-16T20:06:39;16.50;99.90
10042;DHT22;5061;49.068;12.058;2022-10-16T20:10:00;16.50;99.90
10042;DHT22;5061;49.068;12.058;2022-10-16T20:13:21;16.50;99.90
10042;DHT22;5061;49.068;12.058;2022-10-16T20:16:42;16.50;99.90
10042;DHT22;5061;49.068;12.058;2022-10-16T20:20:02;16.50;99.90
10042;DHT22;5061;49.068;12.058;2022-10-16T20:23:26;16.50;99.90
10042;DHT22;5061;49.068;12.058;2022-10-16T20:26:49;16.50;99.90
10042;DHT22;5061;49.068;12.058;2022-10-16T20:30:10;16.40;99.90
10042;DHT22;5061;49.068;12.058;2022-10-16T20:33:33;16.40;99.90
10042;DHT22;5061;49.068;12.058;2022-10-16T20:36:54;16.40;99.90
10042;DHT22;5061;49.068;12.058;2022-10-16T20:40:14;16.40;99.90
10042;DHT22;5061;49.068;12.058;2022-10-16T20:43:39;16.40;99.90
10042;DHT22;5061;49.068;12.058;2022-10-16T20:47:00;16.40;99.90
10042;DHT22;5061;49.068;12.058;2022-10-16T20:50:20;16.40;99.90
10042;DHT22;5061;49.068;12.058;2022-10-16T20:53:42;16.30;99.90
10042;DHT22;5061;49.068;12.058;2022-10-16T20:57:03;16.40;99.90
10042;DHT22;5061;49.068;12.058;2022-10-16T21:00:24;16.30;99.90
10042;DHT22;5061;49.068;12.058;2022-10-16T21:03:58;16.30;99.90
10042;DHT22;5061;49.068;12.058;2022-10-16T21:07:19;16.30;99.90
10042;DHT22;5061;49.068;12.058;2022-10-16T21:10:39;16.30;99.90
10042;DHT22;5061;49.068;12.058;2022-10-16T21:14:02;16.20;99.90
10042;DHT22;5061;49.068;12.058;2022-10-16T21:17:23;16.10;99.90
10042;DHT22;5061;49.068;12.058;2022-10-16T21:20:44;16.10;99.90
10042;DHT22;5061;49.068;12.058;2022-10-16T21:24:05;16.10;99.90
10042;DHT22;5061;49.068;12.058;2022-10-16T21:27:26;16.10;99.90
10042;DHT22;5061;49.068;12.058;2022-10-16T21:30:47;16.00;99.90
10042;DHT22;5061;49.068;12.058;2022-10-16T21:34:08;16.00;99.90
10042;DHT22;5061;49.068;12.058;2022-10-16T21:37:28;15.90;99.90
10042;DHT22;5061;49.068;12.058;2022-10-16T21:40:49;15.90;99.90
10042;DHT22;5061;49.068;12.058;2022-10-16T21:44:10;15.80;99.90
10042;DHT22;5061;49.068;12.058;2022-10-16T21:47:31;15.80;99.90
10042;DHT22;5061;49.068;12.058;2022-10-16T21:50:53;15.80;99.90
10042;DHT22;5061;49.068;12.058;2022-10-16T21:54:19;15.80;99.90
10042;DHT22;5061;49.068;12.058;2022-10-16T21:57:40;15.80;99.90
10042;DHT22;5061;49.068;12.058;2022-10-16T22:01:13;15.70;99.90
10042;DHT22;5061;49.068;12.058;2022-10-16T22:04:34;15.70;99.90
10042;DHT22;5061;49.068;12.058;2022-10-16T22:07:54;15.70;99.90
10042;DHT22;5061;49.068;12.058;2022-10-16T22:11:20;15.60;99.90
10042;DHT22;5061;49.068;12.058;2022-10-16T22:14:42;15.60;99.90
10042;DHT22;5061;49.068;12.058;2022-10-16T22:18:03;15.60;99.90
10042;DHT22;5061;49.068;12.058;2022-10-16T22:21:24;15.60;99.90
10042;DHT22;5061;49.068;12.058;2022-10-16T22:24:45;15.50;99.90
10042;DHT22;5061;49.068;12.058;2022-10-16T22:28:06;15.50;99.90
10042;DHT22;5061;49.068;12.058;2022-10-16T22:31:27;15.40;99.90
10042;DHT22;5061;49.068;12.058;2022-10-16T22:34:48;15.40;99.90
10042;DHT22;5061;49.068;12.058;2022-10-16T22:38:08;15.40;99.90
10042;DHT22;5061;49.068;12.058;2022-10-16T22:41:29;15.40;99.90
10042;DHT22;5061;49.068;12.058;2022-10-16T22:44:50;15.40;99.90
10042;DHT22;5061;49.068;12.058;2022-10-16T22:48:10;15.30;99.90
10042;DHT22;5061;49.068;12.058;2022-10-16T22:51:31;15.20;99.90
10042;DHT22;5061;49.068;12.058;2022-10-16T22:54:52;15.30;99.90